Rosamond, CA

4:27 PM PST on December 26, 2014 (GMT -0800)
Palmdale Af Plant 42 | Change Station
CLOSE
Current Station
Airport
Location: Palmdale,
Elevation: 2543 ft
Nearby Weather Stations
Active Advisory: Hard Freeze Warning Active Notice: Public Information Statement

Elev 2543 ft 34.63 °N, 118.08 °W | Updated 34 minutes ago

Clear
Clear
47 °F
Feels Like 47 °F
N
5
Wind Variable Wind from East

Today
High -- | Low -- °F
--% Chance of Precip.
Yesterday
High -- | Low -- °F
Precip. -- in
6:59 AM 4:48 PM
Waxing Crescent, 30% visible
Pressure 30.13 in
Visibility 10.0 miles
Clouds Clear
Dew Point 12 °F
Humidity 24%
Rainfall 0.00 in
Snow Depth Not available.
UV 0 out of 12
Pollen 4.60 out of 12
Air Quality Not available.
Flu Activity Not available.
METAR KPMD 262353Z AUTO 09004KT 10SM CLR 08/M11 A3011 RMK AO2 SLP202 T00831111 10094 20044 53006

More Conditions Fewer Conditions

Pressure 30.13 in
Visibility 10.0 miles
Clouds Clear
Dew Point 12 °F
Humidity 24%
Rainfall 0.00 in
Snow Depth Not available.
UV 0 out of 12
Pollen 4.60 out of 12
Air Quality Not available.
Flu Activity Not available.
METAR KPMD 262353Z AUTO 09004KT 10SM CLR 08/M11 A3011 RMK AO2 SLP202 T00831111 10094 20044 53006

More Conditions Fewer Conditions

10-Day Weather Forecast

Almanac

Astronomy

Dec. 26, 2014 Rise Set
Actual Time
Civil Twilight
Nautical Twilight
Astronomical Twilight
Moon
Length of Visible Light
Length of Day
Tomorrow will be .
, % of the Moon is Illuminated

Today's Extremes

State Highs State Lows

Community

WunderPhotos

Upload Photos

1,780,794 photos uploaded!

WunderBlogs® & News

Nearby

Air Quality

  Air Quality AQ Index Pollutant
Not available.

Snow Depth

Station Depth Elevation

Earthquake Activity

City Distance Mag. Time & Date
Minimum magnitude displayed is 2.5.

Coastal Water Temperatures

Place Temperature

Nearby Weather Stations